createdAt,value
2018-06-28T00:01:23.753Z,60.05
2018-06-28T00:03:52.934Z,61.17
2018-06-28T00:06:22.102Z,60.41
2018-06-28T00:08:51.322Z,60.87
2018-06-28T00:11:20.479Z,62.01
2018-06-28T00:13:49.647Z,60.62
2018-06-28T00:16:18.806Z,61.25
2018-06-28T00:18:47.981Z,62.11
2018-06-28T00:21:17.181Z,63.42
2018-06-28T00:23:46.367Z,62.02
2018-06-28T00:26:15.534Z,62.17
2018-06-28T00:28:44.684Z,62.06
2018-06-28T00:31:13.885Z,59.75
2018-06-28T00:33:43.061Z,60.86
2018-06-28T00:36:12.289Z,62.41
2018-06-28T00:38:41.468Z,61.50
2018-06-28T00:41:10.626Z,63.71
2018-06-28T00:43:39.828Z,60.82
2018-06-28T00:46:09.005Z,61.27
2018-06-28T00:48:38.165Z,61.18
2018-06-28T00:51:07.957Z,61.14
2018-06-28T00:53:37.135Z,62.11
2018-06-28T00:56:06.337Z,63.49
2018-06-28T00:58:35.505Z,62.23
2018-06-28T01:01:04.685Z,62.36
2018-06-28T01:03:33.869Z,61.53
2018-06-28T01:06:03.117Z,61.28
2018-06-28T01:08:32.277Z,62.47
2018-06-28T01:11:01.442Z,62.44
2018-06-28T01:13:30.619Z,62.63
2018-06-28T01:15:59.825Z,63.84
2018-06-28T01:18:29.002Z,63.03
2018-06-28T01:20:58.997Z,62.71
2018-06-28T01:23:28.181Z,62.54
2018-06-28T01:25:57.359Z,62.26
2018-06-28T01:28:26.545Z,61.47
2018-06-28T01:30:55.755Z,62.02
2018-06-28T01:33:25.025Z,60.43
2018-06-28T01:35:54.217Z,63.92
2018-06-28T01:38:23.401Z,63.15
2018-06-28T01:40:52.598Z,62.90
2018-06-28T01:43:40.985Z,63.68
2018-06-28T01:46:10.303Z,62.54
2018-06-28T01:48:39.532Z,61.65
2018-06-28T01:51:08.978Z,60.98
2018-06-28T01:53:38.177Z,62.25
2018-06-28T01:56:07.353Z,63.32
2018-06-28T01:58:36.555Z,62.96
2018-06-28T02:01:05.817Z,62.39
2018-06-28T02:03:35.049Z,63.42
2018-06-28T02:06:04.274Z,62.99
2018-06-28T02:08:33.469Z,63.52
2018-06-28T02:11:02.757Z,64.27
2018-06-28T02:13:31.925Z,64.40
2018-06-28T02:16:01.178Z,65.09
2018-06-28T02:18:30.357Z,64.30
2018-06-28T02:20:59.517Z,63.90
2018-06-28T02:23:28.706Z,63.84
2018-06-28T02:25:57.913Z,64.27
2018-06-28T02:28:27.081Z,63.51
2018-06-28T02:30:56.282Z,62.47
2018-06-28T02:33:25.503Z,61.41
2018-06-28T02:35:54.666Z,62.89
2018-06-28T02:38:23.873Z,61.98
2018-06-28T02:40:53.045Z,62.51
2018-06-28T02:43:22.381Z,62.94
2018-06-28T02:45:51.569Z,63.28
2018-06-28T02:48:20.747Z,63.79
2018-06-28T02:50:49.985Z,62.07
2018-06-28T02:53:19.179Z,61.30
2018-06-28T02:55:48.366Z,62.61
2018-06-28T02:58:17.564Z,63.38
2018-06-28T03:00:46.744Z,63.71
2018-06-28T03:03:15.946Z,64.31
2018-06-28T03:05:45.205Z,63.35
2018-06-28T03:08:14.420Z,63.75
2018-06-28T03:10:43.614Z,64.11
2018-06-28T03:13:12.807Z,64.12
2018-06-28T03:15:42.023Z,63.90
2018-06-28T03:18:11.221Z,64.72
2018-06-28T03:20:40.445Z,64.40
2018-06-28T03:23:09.612Z,64.21
2018-06-28T03:25:38.794Z,64.23
2018-06-28T03:28:08.069Z,61.84
2018-06-28T03:30:37.253Z,64.49
2018-06-28T03:33:06.432Z,63.14
2018-06-28T03:35:35.626Z,65.24
2018-06-28T03:38:04.936Z,62.65
2018-06-28T03:40:34.083Z,64.10
2018-06-28T03:43:03.274Z,62.80
2018-06-28T03:45:32.530Z,62.11
2018-06-28T03:48:01.715Z,64.29
2018-06-28T03:50:30.947Z,64.48
2018-06-28T03:53:00.190Z,64.69
2018-06-28T03:55:29.367Z,63.38
2018-06-28T03:57:59.211Z,63.78
2018-06-28T04:00:28.470Z,65.82
2018-06-28T04:02:57.931Z,62.49
2018-06-28T04:05:27.123Z,62.74
2018-06-28T04:07:56.322Z,62.86
2018-06-28T04:10:25.534Z,62.86
2018-06-28T04:12:54.800Z,62.03
2018-06-28T04:15:23.988Z,61.69
2018-06-28T04:17:53.169Z,61.93
2018-06-28T04:20:22.379Z,63.46
2018-06-28T04:22:51.547Z,62.07
2018-06-28T04:25:20.762Z,62.75
2018-06-28T04:27:50.133Z,63.57
2018-06-28T04:30:19.311Z,61.54
2018-06-28T04:32:48.478Z,61.51
2018-06-28T04:35:17.704Z,61.36
2018-06-28T04:37:46.905Z,61.17
2018-06-28T04:40:16.086Z,62.41
2018-06-28T04:42:45.302Z,61.92
2018-06-28T04:45:14.487Z,61.21
2018-06-28T04:47:43.677Z,60.74
2018-06-28T04:50:12.881Z,58.80
2018-06-28T04:52:42.036Z,57.64
2018-06-28T04:55:11.270Z,58.18
2018-06-28T04:57:40.467Z,57.86
2018-06-28T05:00:09.701Z,57.25
2018-06-28T05:02:38.866Z,57.99
2018-06-28T05:05:08.065Z,57.33
2018-06-28T05:07:37.225Z,57.96
2018-06-28T05:10:06.490Z,57.80
2018-06-28T05:12:35.652Z,56.80
2018-06-28T05:15:04.880Z,57.66
2018-06-28T05:17:34.071Z,56.14
2018-06-28T05:20:03.270Z,53.84
2018-06-28T05:22:32.418Z,50.53
2018-06-28T05:25:01.641Z,49.63
2018-06-28T05:27:30.833Z,46.29
2018-06-28T05:30:00.199Z,43.54
2018-06-28T05:32:29.375Z,41.62
2018-06-28T05:34:58.833Z,40.44
2018-06-28T05:37:28.174Z,41.74
2018-06-28T05:39:57.390Z,40.47
2018-06-28T05:42:26.598Z,40.72
2018-06-28T05:44:55.852Z,39.12
2018-06-28T05:47:25.093Z,35.51
2018-06-28T05:49:54.294Z,36.52
2018-06-28T05:52:23.482Z,34.29
2018-06-28T05:54:52.670Z,33.72
2018-06-28T05:57:21.925Z,35.08
2018-06-28T05:59:51.122Z,33.06
2018-06-28T06:02:20.312Z,33.61
2018-06-28T06:04:49.548Z,31.63
2018-06-28T06:07:18.705Z,32.83
2018-06-28T06:09:48.120Z,31.58
2018-06-28T06:12:17.333Z,34.13
2018-06-28T06:14:46.613Z,32.87
2018-06-28T06:17:15.861Z,34.44
2018-06-28T06:19:45.050Z,31.83
2018-06-28T06:22:14.229Z,31.12
2018-06-28T06:24:43.415Z,30.10
2018-06-28T06:27:12.608Z,30.36
2018-06-28T06:29:41.772Z,28.93
2018-06-28T06:32:10.935Z,28.46
2018-06-28T06:34:40.298Z,27.63
2018-06-28T06:37:09.481Z,26.93
2018-06-28T06:39:38.665Z,26.92
2018-06-28T06:42:07.885Z,26.30
2018-06-28T06:44:37.064Z,26.07
2018-06-28T06:47:06.276Z,26.08
2018-06-28T06:49:35.466Z,29.22
2018-06-28T06:52:04.709Z,28.79
2018-06-28T06:54:33.972Z,27.14
2018-06-28T06:57:03.260Z,28.23
2018-06-28T06:59:32.445Z,29.19
2018-06-28T07:02:01.651Z,27.42
2018-06-28T07:04:30.878Z,27.98
2018-06-28T07:07:00.075Z,26.76
2018-06-28T07:09:29.258Z,28.98
2018-06-28T07:11:58.447Z,26.34
2018-06-28T07:14:27.640Z,25.98
2018-06-28T07:16:56.839Z,27.32
2018-06-28T07:19:26.001Z,25.76
2018-06-28T07:21:55.203Z,25.67
2018-06-28T07:24:24.460Z,25.54
2018-06-28T07:26:53.695Z,24.55
2018-06-28T07:29:22.902Z,24.37
2018-06-28T07:31:52.078Z,24.95
2018-06-28T07:34:21.300Z,24.85
2018-06-28T07:36:50.491Z,25.44
2018-06-28T07:39:19.664Z,27.68
2018-06-28T07:41:48.846Z,27.75
2018-06-28T07:44:18.018Z,22.94
2018-06-28T07:46:47.289Z,24.51
2018-06-28T07:49:16.442Z,23.71
2018-06-28T07:51:45.633Z,24.13
2018-06-28T07:54:14.812Z,24.81
2018-06-28T07:56:43.977Z,25.73
2018-06-28T07:59:13.194Z,24.92
2018-06-28T08:01:42.400Z,25.58
2018-06-28T08:04:11.569Z,25.57
2018-06-28T08:06:40.762Z,24.66
2018-06-28T08:09:09.935Z,23.81
2018-06-28T08:11:39.149Z,25.04
2018-06-28T08:14:08.345Z,25.08
2018-06-28T08:16:37.523Z,26.38
2018-06-28T08:19:06.757Z,26.72
2018-06-28T08:21:35.987Z,25.41
2018-06-28T08:24:05.240Z,25.15
2018-06-28T08:26:35.405Z,27.36
2018-06-28T08:29:04.854Z,22.96
2018-06-28T08:31:34.054Z,25.13
2018-06-28T08:34:03.253Z,23.80
2018-06-28T08:36:32.449Z,26.48
2018-06-28T08:39:01.636Z,25.55
2018-06-28T08:41:30.838Z,24.90
2018-06-28T08:44:00.047Z,23.62
2018-06-28T08:46:29.229Z,22.82
2018-06-28T08:48:58.460Z,22.42
2018-06-28T08:51:27.642Z,24.00
2018-06-28T08:53:56.818Z,23.40
2018-06-28T08:56:26.024Z,23.37
2018-06-28T08:58:55.219Z,25.25
2018-06-28T09:01:24.416Z,22.56
2018-06-28T09:03:54.662Z,23.53
2018-06-28T09:06:23.869Z,23.42
2018-06-28T09:08:53.061Z,21.08
2018-06-28T09:11:22.634Z,20.69
2018-06-28T09:13:51.829Z,22.40
2018-06-28T09:16:21.088Z,22.91
2018-06-28T09:18:50.293Z,23.63
2018-06-28T09:21:19.565Z,22.98
2018-06-28T09:23:48.738Z,22.75
2018-06-28T09:26:17.913Z,20.91
2018-06-28T09:28:47.101Z,19.92
2018-06-28T09:31:16.298Z,20.27
2018-06-28T09:33:45.625Z,20.27
2018-06-28T09:36:14.818Z,19.99
2018-06-28T09:38:44.070Z,20.10
2018-06-28T09:41:13.255Z,21.06
2018-06-28T09:43:42.450Z,20.16
2018-06-28T09:46:11.682Z,22.16
2018-06-28T09:48:40.965Z,21.14
2018-06-28T09:51:10.154Z,20.85
2018-06-28T09:53:39.346Z,21.76
2018-06-28T09:56:08.894Z,22.67
2018-06-28T09:58:38.082Z,22.65
2018-06-28T10:01:07.266Z,22.32
2018-06-28T10:03:36.457Z,22.30
2018-06-28T10:06:05.666Z,22.76
2018-06-28T10:08:34.870Z,21.86
2018-06-28T10:11:04.037Z,21.15
2018-06-28T10:13:33.218Z,21.79
2018-06-28T10:16:02.404Z,21.66
2018-06-28T10:18:31.628Z,23.16
2018-06-28T10:21:00.852Z,22.54
2018-06-28T10:23:30.148Z,21.42
2018-06-28T10:25:59.358Z,21.77
2018-06-28T10:28:28.533Z,20.99
2018-06-28T10:30:57.928Z,21.77
2018-06-28T10:33:27.117Z,22.10
2018-06-28T10:35:56.305Z,20.46
2018-06-28T10:38:25.507Z,21.62
2018-06-28T10:40:54.771Z,21.77
2018-06-28T10:43:24.824Z,22.09
2018-06-28T10:45:54.897Z,20.50
2018-06-28T10:48:25.162Z,20.45
2018-06-28T10:50:55.491Z,23.73
2018-06-28T10:53:24.835Z,24.83
2018-06-28T10:55:54.042Z,23.46
2018-06-28T10:58:23.217Z,24.99
2018-06-28T11:00:52.572Z,25.92
2018-06-28T11:03:21.757Z,25.94
2018-06-28T11:05:50.943Z,22.96
2018-06-28T11:08:20.195Z,23.51
2018-06-28T11:10:49.377Z,21.71
2018-06-28T11:13:18.538Z,24.90
2018-06-28T11:15:47.760Z,25.46
2018-06-28T11:18:16.929Z,24.81
2018-06-28T11:20:46.093Z,27.17
2018-06-28T11:23:15.253Z,29.68
2018-06-28T11:25:44.442Z,31.37
2018-06-28T11:28:13.726Z,28.33
2018-06-28T11:30:42.902Z,26.58
2018-06-28T11:33:12.085Z,28.60
2018-06-28T11:35:41.314Z,28.35
2018-06-28T11:38:10.599Z,29.58
2018-06-28T11:40:39.827Z,28.67
2018-06-28T11:43:09.208Z,29.94
2018-06-28T11:45:38.483Z,29.09
2018-06-28T11:48:07.706Z,27.71
2018-06-28T11:50:36.897Z,28.80
2018-06-28T11:53:06.082Z,29.44
2018-06-28T11:55:35.273Z,30.12
2018-06-28T11:58:04.457Z,29.75
2018-06-28T12:00:33.744Z,28.01
2018-06-28T12:03:02.950Z,29.91
2018-06-28T12:05:32.139Z,29.46
2018-06-28T12:08:01.335Z,29.84
2018-06-28T12:10:30.540Z,29.60
2018-06-28T12:12:59.713Z,27.98
2018-06-28T12:15:28.944Z,28.40
2018-06-28T12:17:58.129Z,28.60
2018-06-28T12:20:27.296Z,29.15
2018-06-28T12:22:56.484Z,27.66
2018-06-28T12:25:25.653Z,27.03
2018-06-28T12:27:54.857Z,28.32
2018-06-28T12:30:24.058Z,27.31
2018-06-28T12:32:53.248Z,27.96
2018-06-28T12:35:22.483Z,29.02
2018-06-28T12:37:51.677Z,30.25
2018-06-28T12:40:20.853Z,29.51
2018-06-28T12:42:50.060Z,29.43
2018-06-28T12:45:19.406Z,28.94
2018-06-28T12:48:00.793Z,29.63
2018-06-28T12:50:30.014Z,28.98
2018-06-28T12:53:02.218Z,29.88
2018-06-28T12:56:39.465Z,28.48
2018-06-28T12:59:10.761Z,28.47
2018-06-28T13:01:39.993Z,28.22
2018-06-28T13:04:09.165Z,28.06
2018-06-28T13:06:38.376Z,29.54
2018-06-28T13:09:10.782Z,29.89
2018-06-28T13:11:40.127Z,30.49
2018-06-28T13:14:09.407Z,28.52
2018-06-28T13:16:38.668Z,28.87
2018-06-28T13:19:07.895Z,29.02
2018-06-28T13:21:37.079Z,30.34
2018-06-28T13:24:06.802Z,31.82
2018-06-28T13:26:36.165Z,31.68
2018-06-28T13:29:05.548Z,32.21
2018-06-28T13:31:34.898Z,31.49
2018-06-28T13:34:04.095Z,31.11
2018-06-28T13:36:33.473Z,29.39
2018-06-28T13:39:02.723Z,29.43
2018-06-28T13:41:32.143Z,29.78
2018-06-28T13:44:01.109Z,29.15
2018-06-28T13:46:30.366Z,29.82
2018-06-28T13:48:59.594Z,31.37
2018-06-28T13:51:28.955Z,31.28
2018-06-28T13:53:58.977Z,31.18
2018-06-28T13:56:28.405Z,30.08
2018-06-28T13:58:57.565Z,29.74
2018-06-28T14:01:26.862Z,28.92
2018-06-28T14:03:56.046Z,29.15
2018-06-28T14:06:25.248Z,29.21
2018-06-28T14:08:54.463Z,29.12
2018-06-28T14:11:23.711Z,29.20
2018-06-28T14:13:52.876Z,30.44
2018-06-28T14:16:22.110Z,30.82
2018-06-28T14:18:51.305Z,31.01
2018-06-28T14:21:20.594Z,31.56
2018-06-28T14:23:49.758Z,31.59
2018-06-28T14:26:18.935Z,30.25
2018-06-28T14:28:48.157Z,30.31
2018-06-28T14:31:17.357Z,30.13
2018-06-28T14:33:46.594Z,31.04
2018-06-28T14:36:15.848Z,31.12
2018-06-28T14:38:45.205Z,31.67
2018-06-28T14:41:14.441Z,30.41
2018-06-28T14:43:43.629Z,32.07
2018-06-28T14:46:12.824Z,31.22
2018-06-28T14:48:42.008Z,31.84
2018-06-28T14:51:11.257Z,32.09
2018-06-28T14:53:40.553Z,30.43
2018-06-28T14:56:09.830Z,30.53
2018-06-28T14:58:39.071Z,30.33
2018-06-28T15:01:08.300Z,29.98
2018-06-28T15:03:37.522Z,29.06
2018-06-28T15:06:06.721Z,30.35
2018-06-28T15:08:35.915Z,29.44
2018-06-28T15:11:05.126Z,30.18
2018-06-28T15:13:34.341Z,29.86
2018-06-28T15:16:03.582Z,31.08
2018-06-28T15:18:32.827Z,30.41
2018-06-28T15:21:02.053Z,32.38
2018-06-28T15:23:31.221Z,32.21
2018-06-28T15:26:00.550Z,32.86
2018-06-28T15:28:29.773Z,32.57
2018-06-28T15:30:58.975Z,32.79
2018-06-28T15:33:28.146Z,33.80
2018-06-28T15:35:57.390Z,33.27
2018-06-28T15:38:26.580Z,34.37
2018-06-28T15:40:55.785Z,31.68
2018-06-28T15:43:24.972Z,33.38
2018-06-28T15:45:54.708Z,32.52
2018-06-28T15:48:23.919Z,34.25
2018-06-28T15:50:53.204Z,34.34
2018-06-28T15:53:22.385Z,34.30
2018-06-28T15:55:51.634Z,33.00
2018-06-28T15:58:20.897Z,31.52
2018-06-28T16:00:50.206Z,31.79
2018-06-28T16:03:19.451Z,31.54
2018-06-28T16:05:48.855Z,31.62
2018-06-28T16:08:18.035Z,32.16
2018-06-28T16:10:47.417Z,32.82
2018-06-28T16:13:16.622Z,32.83
2018-06-28T16:15:45.813Z,32.61
2018-06-28T16:18:14.993Z,33.41
2018-06-28T16:20:45.428Z,33.14
2018-06-28T16:23:14.617Z,33.18
2018-06-28T16:25:43.804Z,33.20
2018-06-28T16:28:12.982Z,31.76
2018-06-28T16:30:42.284Z,32.20
2018-06-28T16:33:11.533Z,31.88
2018-06-28T16:35:40.737Z,32.68
2018-06-28T16:38:09.925Z,32.68
2018-06-28T16:40:39.133Z,33.49
2018-06-28T16:43:08.404Z,33.52
2018-06-28T16:45:37.611Z,31.98
2018-06-28T16:48:06.900Z,30.72
2018-06-28T16:50:36.119Z,33.13
2018-06-28T16:53:05.437Z,33.73
2018-06-28T16:55:34.577Z,33.17
2018-06-28T16:58:03.829Z,32.90
2018-06-28T17:00:33.005Z,34.92
2018-06-28T17:03:02.267Z,33.67
2018-06-28T17:05:31.442Z,33.89
2018-06-28T17:08:00.740Z,35.60
2018-06-28T17:10:29.888Z,34.83
2018-06-28T17:12:59.101Z,34.74
2018-06-28T17:15:28.600Z,34.55
2018-06-28T17:17:57.889Z,33.68
2018-06-28T17:20:27.188Z,34.22
2018-06-28T17:22:56.417Z,33.58
2018-06-28T17:25:25.671Z,34.03
2018-06-28T17:27:54.916Z,34.38
2018-06-28T17:30:24.164Z,35.26
2018-06-28T17:32:53.446Z,35.14
2018-06-28T17:35:22.585Z,33.90
2018-06-28T17:37:51.764Z,34.11
2018-06-28T17:40:21.035Z,34.21
2018-06-28T17:42:50.240Z,35.11
2018-06-28T17:45:19.600Z,34.79
2018-06-28T17:47:49.281Z,35.07
2018-06-28T17:50:18.496Z,33.21
2018-06-28T17:52:47.705Z,34.95
2018-06-28T17:55:16.884Z,34.34
2018-06-28T17:57:46.073Z,34.75
2018-06-28T18:00:15.673Z,33.90
2018-06-28T18:02:44.879Z,34.44
2018-06-28T18:05:14.127Z,35.48
2018-06-28T18:07:43.381Z,34.92
2018-06-28T18:10:19.297Z,35.00
2018-06-28T18:12:48.566Z,34.91
2018-06-28T18:15:17.892Z,35.46
2018-06-28T18:17:47.044Z,35.01
2018-06-28T18:20:16.256Z,35.06
2018-06-28T18:22:45.485Z,34.86
2018-06-28T18:25:14.730Z,35.65
2018-06-28T18:27:43.924Z,34.90
2018-06-28T18:30:13.152Z,35.84
2018-06-28T18:32:42.530Z,36.83
2018-06-28T18:35:11.730Z,35.67
2018-06-28T18:37:41.002Z,35.76
2018-06-28T18:40:10.217Z,36.25
2018-06-28T18:42:39.445Z,35.81
2018-06-28T18:45:08.739Z,35.58
2018-06-28T18:47:37.900Z,35.62
2018-06-28T18:50:07.094Z,35.59
2018-06-28T18:52:36.293Z,35.31
2018-06-28T18:55:05.602Z,36.58
2018-06-28T18:57:34.994Z,35.66
2018-06-28T19:00:04.872Z,36.69
2018-06-28T19:02:34.244Z,36.70
2018-06-28T19:05:03.469Z,37.30
2018-06-28T19:07:32.625Z,37.26
2018-06-28T19:10:07.185Z,38.31
2018-06-28T19:12:36.329Z,37.27
2018-06-28T19:15:10.795Z,38.82
2018-06-28T19:17:39.997Z,38.64
2018-06-28T19:20:09.175Z,39.01
2018-06-28T19:22:43.724Z,39.15
2018-06-28T19:25:12.874Z,40.47
2018-06-28T19:27:42.123Z,38.90
2018-06-28T19:30:16.396Z,38.83
2018-06-28T19:32:45.570Z,40.09
2018-06-28T19:35:14.800Z,41.59
2018-06-28T19:37:48.924Z,40.11
2018-06-28T19:40:23.677Z,42.51
2018-06-28T19:42:58.133Z,41.28
2018-06-28T19:45:27.361Z,42.16
2018-06-28T19:47:56.622Z,41.89
2018-06-28T19:50:31.164Z,42.15
2018-06-28T19:53:06.483Z,42.62
2018-06-28T19:55:35.737Z,44.06
2018-06-28T19:58:04.927Z,43.25
2018-06-28T20:00:39.496Z,45.26
2018-06-28T20:03:13.937Z,46.17
2018-06-28T20:05:43.172Z,45.39
2018-06-28T20:08:12.785Z,45.98
2018-06-28T20:10:42.087Z,46.14
2018-06-28T20:13:16.517Z,47.50
2018-06-28T20:15:55.853Z,46.10
2018-06-28T20:18:30.293Z,47.39
2018-06-28T20:21:00.846Z,47.07
2018-06-28T20:23:30.229Z,47.98
2018-06-28T20:26:03.594Z,47.12
2018-06-28T20:28:38.171Z,46.54
2018-06-28T20:31:12.741Z,47.89
2018-06-28T20:33:47.216Z,47.75
2018-06-28T20:36:16.409Z,47.89
2018-06-28T20:38:45.587Z,49.24
2018-06-28T20:41:14.969Z,49.26
2018-06-28T20:43:44.182Z,49.58
2018-06-28T20:46:13.357Z,50.02
2018-06-28T20:48:42.584Z,49.36
2018-06-28T20:51:12.120Z,50.73
2018-06-28T20:53:41.214Z,51.05
2018-06-28T20:56:10.383Z,51.03
2018-06-28T20:58:40.231Z,50.49
2018-06-28T21:01:10.242Z,51.37
2018-06-28T21:03:39.486Z,51.39
2018-06-28T21:06:08.673Z,51.74
2018-06-28T21:08:37.977Z,51.96
2018-06-28T21:11:07.485Z,51.47
2018-06-28T21:13:37.067Z,51.05
2018-06-28T21:16:06.430Z,52.70
2018-06-28T21:18:35.713Z,51.98
2018-06-28T21:21:04.914Z,52.75
2018-06-28T21:23:34.328Z,52.89
2018-06-28T21:26:03.525Z,52.23
2018-06-28T21:28:32.712Z,53.09
2018-06-28T21:31:01.872Z,52.15
2018-06-28T21:33:31.073Z,52.25
2018-06-28T21:36:00.305Z,53.05
2018-06-28T21:38:29.480Z,52.61
2018-06-28T21:40:58.666Z,52.34
2018-06-28T21:43:27.852Z,53.07
2018-06-28T21:45:57.062Z,52.59
2018-06-28T21:48:26.266Z,54.21
2018-06-28T21:50:55.422Z,53.81
2018-06-28T21:53:24.639Z,54.33
2018-06-28T21:55:53.824Z,54.04
2018-06-28T21:58:23.016Z,53.27
2018-06-28T22:00:52.218Z,55.16
2018-06-28T22:03:21.566Z,53.84
2018-06-28T22:05:50.729Z,53.41
2018-06-28T22:08:19.906Z,52.95
2018-06-28T22:10:49.079Z,54.13
2018-06-28T22:13:18.243Z,52.88
2018-06-28T22:15:47.474Z,51.90
2018-06-28T22:18:16.665Z,53.30
2018-06-28T22:20:45.833Z,52.60
2018-06-28T22:23:15.093Z,52.78
2018-06-28T22:25:44.302Z,52.00
2018-06-28T22:28:13.481Z,51.77
2018-06-28T22:30:42.683Z,53.60
2018-06-28T22:33:11.917Z,53.75
2018-06-28T22:35:41.161Z,53.76
2018-06-28T22:38:10.342Z,53.05
2018-06-28T22:40:39.512Z,53.61
2018-06-28T22:43:08.766Z,53.73
2018-06-28T22:45:37.964Z,54.30
2018-06-28T22:48:07.126Z,55.23
2018-06-28T22:50:36.381Z,54.76
2018-06-28T22:53:05.605Z,54.25
2018-06-28T22:55:34.797Z,56.63
2018-06-28T22:58:03.961Z,55.88
2018-06-28T23:00:33.153Z,55.50
2018-06-28T23:03:02.350Z,56.18
2018-06-28T23:05:31.589Z,58.59
2018-06-28T23:08:01.002Z,56.65
2018-06-28T23:10:30.022Z,55.48
2018-06-28T23:12:59.209Z,56.58
2018-06-28T23:15:28.370Z,56.60
2018-06-28T23:17:57.564Z,55.88
2018-06-28T23:20:26.776Z,56.20
2018-06-28T23:22:55.936Z,55.66
2018-06-28T23:25:25.150Z,55.07
2018-06-28T23:27:54.319Z,55.85
2018-06-28T23:30:23.493Z,57.00
2018-06-28T23:32:52.744Z,55.94
2018-06-28T23:35:21.892Z,55.89
2018-06-28T23:37:51.063Z,56.33
2018-06-28T23:40:20.310Z,56.97
2018-06-28T23:42:49.666Z,57.09
2018-06-28T23:45:18.841Z,56.77
2018-06-28T23:47:48.049Z,56.60
2018-06-28T23:50:17.409Z,55.88
2018-06-28T23:52:46.575Z,56.48
2018-06-28T23:55:15.766Z,57.43
2018-06-28T23:57:44.939Z,56.16
